Terminal Aerodrome Forecast
Issued by NWS

Home | Current Version | Previous Version | Text Only | Print | Product List | Glossary Off
Versions: 1 2 3 4 5 6 7 8 9 10 11 12 13 14 15

649
FTUS42 KMHX 060537
TAFISO
TAF
KISO 060537Z 0606/0706 06007KT 5SM -RA BR SCT025 OVC050
     FM061000 05008KT 5SM -RA BR SCT006 OVC025
     FM061300 07011G18KT 3SM RA BR OVC006
     FM062100 29010KT P6SM VCSH OVC007
     FM062300 28009KT P6SM BKN007
      AMD LTD TO VIS AND WIND=

USA.gov is the U.S. government's official web portal to all federal, state and local government web resources and services.